EGJA/ACI METAR and TAF weather

Enter ICAO airport designator
Station Type Date Time Source
EGJA METAR 2018/07/21 18:20 UTC NOAA

EGJA 211820Z VRB02KT CAVOK 20/12 Q1016


Station Type Date Time Source
EGJA Decoded METAR 2018/07/21 18:20 UTC NOAA

Alderney / Channel Island, United Kingdom (EGJA) 49-43N 002-12W
Jul 21, 2018 - 02:20 PM EDT / 2018.07.21 1820 UTC
Wind: Variable at 2 MPH (2 KT):0
Visibility: greater than 7 mile(s):0
Temperature: 68 F (20 C)
Dew Point: 53 F (12 C)
Relative Humidity: 59%
Pressure (altimeter): 30.00 in. Hg (1016 hPa)
ob: EGJA 211820Z VRB02KT CAVOK 20/12 Q1016
cycle: 18

Station Type Date Time Source
EGJA TAF UTC NOAA

Error!


Example: see airport list